EDT,Max TemperatureF,Mean TemperatureF,Min TemperatureF,Max Dew PointF,MeanDew PointF,Min DewpointF,Max Humidity, Mean Humidity, Min Humidity, Max Sea Level PressureIn, Mean Sea Level PressureIn, Min Sea Level PressureIn, Max VisibilityMiles, Mean VisibilityMiles, Min VisibilityMiles, Max Wind SpeedMPH, Mean Wind SpeedMPH, Max Gust SpeedMPH,PrecipitationIn, CloudCover, Events, WindDirDegrees
2014-3-1,64,54,44,54,50,45,100,86,59,30.29,30.22,30.13,10,8,0,10,5,,0.00,5,,40
2014-3-2,71,56,41,59,46,34,100,76,25,30.27,30.18,30.08,10,7,0,9,2,,0.00,2,,145
2014-3-3,82,66,51,64,58,52,100,76,39,30.07,29.97,29.88,10,10,0,20,9,29,0.00,3,,242
2014-3-4,62,52,42,55,42,36,100,88,76,30.18,30.13,30.04,10,9,4,17,9,26,0.00,8,,26
2014-3-5,46,42,37,46,41,36,100,93,76,30.16,30.13,30.09,10,9,4,8,4,,0.00,8,,4
2014-3-6,50,46,42,48,45,41,100,97,87,30.14,29.98,29.86,10,9,2,16,9,23,0.00,8,,21
2014-3-7,50,46,42,43,43,43,100,84,76,30.08,29.97,29.86,10,10,1,12,6,17,0.00,7,,306
2014-3-8,69,53,37,46,42,37,100,74,40,30.20,30.13,30.06,10,8,0,9,2,,0.00,0,,236
2014-3-9,77,60,44,50,46,41,93,64,31,30.20,30.13,30.07,10,10,10,13,4,20,0.00,0,,264
2014-3-10,78,64,50,52,49,46,100,61,32,30.11,30.04,29.93,10,10,10,14,5,23,0.00,0,,272
2014-3-11,82,68,53,55,53,50,94,67,32,29.97,29.89,29.81,10,10,10,13,5,17,0.00,0,,224
2014-3-12,78,68,59,64,57,45,100,72,47,29.82,29.71,29.61,10,10,7,21,8,30,0.00,6,Thunderstorm,244
2014-3-13,60,50,37,41,27,21,81,44,22,30.27,30.08,29.83,10,10,10,18,11,28,0.00,0,,303
2014-3-14,64,48,32,46,37,32,100,70,34,30.36,30.28,30.21,10,10,10,12,2,,0.00,0,,119
2014-3-15,77,62,48,55,49,37,100,70,32,30.21,30.13,30.05,10,10,10,12,4,21,0.00,0,,210
2014-3-16,77,66,55,64,59,52,100,79,53,30.06,29.87,29.74,10,10,3,18,7,26,0.00,3,,188
2014-3-17,66,60,55,63,60,54,100,96,88,29.80,29.75,29.70,10,8,1,10,4,17,0.00,8,,164
2014-3-18,59,52,44,54,48,45,100,90,72,30.13,29.93,29.73,10,10,7,13,7,17,0.00,8,Thunderstorm,18
2014-3-19,64,56,48,54,49,46,100,84,64,30.18,30.13,30.07,10,9,0,12,6,,0.00,6,,328
2014-3-20,77,60,44,55,51,45,100,77,34,30.11,30.06,29.98,10,7,0,12,2,,0.00,1,,249
2014-3-21,69,56,44,54,47,37,100,72,31,30.18,30.11,30.07,10,9,0,12,2,,0.00,0,,70
2014-3-22,73,63,53,64,60,54,100,90,69,30.10,30.04,29.97,10,9,0,9,1,,0.00,4,,125
2014-3-23,78,66,55,63,57,52,100,75,41,30.03,29.98,29.90,10,8,0,16,4,21,0.00,2,,273
2014-3-24,64,58,53,55,46,41,88,69,55,30.21,30.10,30.00,10,10,10,20,10,29,0.00,7,,45
2014-3-25,71,58,46,54,41,21,100,63,21,30.12,29.92,29.78,10,10,7,22,7,31,0.00,4,,315
2014-3-26,59,46,33,37,25,18,93,48,22,30.35,30.27,30.13,10,10,10,12,7,22,0.00,0,,311
2014-3-27,68,52,37,54,45,36,100,76,46,30.40,30.34,30.28,10,10,10,15,3,20,0.00,2,,122
2014-3-28,73,62,50,64,60,50,100,87,69,30.26,30.15,30.05,10,9,1,15,4,21,0.00,4,,148
2014-3-29,78,71,64,68,64,54,100,83,57,30.04,29.90,29.78,10,10,4,18,7,25,0.00,6,Thunderstorm,214
2014-3-30,69,58,48,52,40,32,76,53,25,30.08,29.99,29.89,10,10,10,18,11,28,0.00,0,,287
2014-3-31,71,55,39,50,39,32,94,60,25,30.18,30.13,30.09,10,10,10,10,2,,0.00,0,,156